Аэропорт: Шымкент. Шымкент

ICAO: UAII

METAR:
2024-07-24 15:00:00
UAII 241500Z 03003MPS CAVOK 33/11 Q0999 NOSIG RMK QFE713/0950
TAF:
2024-07-24 11:09:00
TAF UAII 241109Z 2412/2512 28003G08MPS 8000 SCT040 TX39/2510Z TN22/2501Z 
  TEMPO 2412/2419 34005G12MPS TS SCT050CB 
  TEMPO 2419/2503 12005MPS FEW050CB 
  TEMPO 2503/2512 33005G10MPS SCT050CB